createdAt,value
2022-10-01T00:02:17.329Z,9.65
2022-10-01T00:04:43.989Z,9.38
2022-10-01T00:07:15.197Z,8.32
2022-10-01T00:09:42.031Z,8.90
2022-10-01T00:12:08.640Z,9.13
2022-10-01T00:14:39.235Z,9.82
2022-10-01T00:17:05.968Z,9.35
2022-10-01T00:19:32.594Z,8.57
2022-10-01T00:21:59.256Z,8.45
2022-10-01T00:24:25.937Z,8.40
2022-10-01T00:26:53.235Z,7.57
2022-10-01T00:29:19.834Z,8.30
2022-10-01T00:31:46.541Z,8.35
2022-10-01T00:34:15.535Z,8.88
2022-10-01T00:36:42.367Z,8.30
2022-10-01T00:39:11.205Z,7.13
2022-10-01T00:41:38.557Z,8.32
2022-10-01T00:44:28.962Z,7.88
2022-10-01T00:46:58.734Z,7.35
2022-10-01T00:49:27.798Z,6.95
2022-10-01T00:51:58.408Z,7.90
2022-10-01T00:54:42.731Z,7.10
2022-10-01T00:57:09.367Z,6.97
2022-10-01T00:59:36.514Z,8.13
2022-10-01T01:02:03.978Z,7.18
2022-10-01T01:04:30.819Z,7.68
2022-10-01T01:06:58.868Z,8.02
2022-10-01T01:09:31.829Z,8.27
2022-10-01T01:12:13.726Z,7.30
2022-10-01T01:14:55.198Z,7.00
2022-10-01T01:17:30.045Z,7.40
2022-10-01T01:20:05.845Z,6.68
2022-10-01T01:22:35.728Z,6.20
2022-10-01T01:25:18.639Z,6.68
2022-10-01T01:30:31.785Z,6.07
2022-10-01T01:33:06.029Z,6.90
2022-10-01T01:35:37.432Z,6.78
2022-10-01T01:38:11.418Z,7.05
2022-10-01T01:40:39.359Z,7.82
2022-10-01T01:43:10.309Z,7.10
2022-10-01T01:45:40.065Z,6.88
2022-10-01T01:48:09.970Z,7.13
2022-10-01T01:50:42.637Z,7.63
2022-10-01T01:53:09.412Z,7.22
2022-10-01T01:55:36.866Z,7.15
2022-10-01T01:58:03.733Z,7.43
2022-10-01T02:00:30.363Z,7.40
2022-10-01T02:02:57.585Z,7.53
2022-10-01T02:05:27.342Z,7.05
2022-10-01T02:08:23.182Z,6.57
2022-10-01T02:11:03.348Z,7.38
2022-10-01T02:13:42.029Z,7.10
2022-10-01T02:16:27.683Z,6.30
2022-10-01T02:19:02.416Z,5.65
2022-10-01T02:21:35.560Z,6.43
2022-10-01T02:24:05.034Z,6.43
2022-10-01T02:26:32.681Z,6.45
2022-10-01T02:29:04.714Z,6.00
2022-10-01T02:31:32.581Z,6.10
2022-10-01T02:34:01.448Z,5.13
2022-10-01T02:36:30.057Z,5.60
2022-10-01T02:38:57.058Z,6.15
2022-10-01T02:41:27.851Z,5.13
2022-10-01T02:44:08.010Z,6.65
2022-10-01T02:46:40.107Z,5.75
2022-10-01T02:49:06.786Z,6.22
2022-10-01T02:51:52.161Z,5.90
2022-10-01T02:54:33.475Z,5.22
2022-10-01T02:57:18.744Z,5.80
2022-10-01T02:59:45.504Z,5.65
2022-10-01T03:02:12.230Z,4.88
2022-10-01T03:04:39.282Z,4.95
2022-10-01T03:07:05.920Z,5.70
2022-10-01T03:09:34.591Z,4.90
2022-10-01T03:12:01.930Z,5.03
2022-10-01T03:14:28.706Z,5.00
2022-10-01T03:16:55.437Z,4.32
2022-10-01T03:19:22.199Z,5.38
2022-10-01T03:21:48.858Z,4.95
2022-10-01T03:24:15.478Z,4.45
2022-10-01T03:26:42.234Z,4.65
2022-10-01T03:29:09.755Z,5.13
2022-10-01T03:31:38.313Z,4.15
2022-10-01T03:34:05.154Z,4.32
2022-10-01T03:36:31.799Z,4.05
2022-10-01T03:38:58.389Z,4.10
2022-10-01T03:41:25.048Z,3.25
2022-10-01T03:43:51.710Z,3.90
2022-10-01T03:46:18.296Z,3.83
2022-10-01T03:48:44.895Z,3.90
2022-10-01T03:51:11.547Z,3.55
2022-10-01T03:53:38.685Z,3.90
2022-10-01T03:56:05.449Z,4.07
2022-10-01T03:58:32.201Z,3.72
2022-10-01T04:01:00.638Z,3.70
2022-10-01T04:03:27.222Z,4.30
2022-10-01T04:05:53.893Z,3.95
2022-10-01T04:08:24.267Z,4.25
2022-10-01T04:10:51.306Z,5.57
2022-10-01T04:13:18.192Z,7.30
2022-10-01T04:15:44.997Z,9.18
2022-10-01T04:18:11.712Z,10.95
2022-10-01T04:20:38.733Z,10.60
2022-10-01T04:23:05.741Z,10.05
2022-10-01T04:25:32.440Z,8.40
2022-10-01T04:28:02.122Z,7.90
2022-10-01T04:30:31.964Z,5.43
2022-10-01T04:32:58.662Z,5.60
2022-10-01T04:35:26.717Z,4.40
2022-10-01T04:38:07.229Z,4.05
2022-10-01T04:40:35.999Z,3.67
2022-10-01T04:43:04.047Z,3.35
2022-10-01T04:45:30.988Z,3.22
2022-10-01T04:47:58.396Z,2.95
2022-10-01T04:50:26.911Z,3.45
2022-10-01T04:52:53.913Z,3.15
2022-10-01T04:55:21.417Z,3.10
2022-10-01T04:57:48.378Z,3.28
2022-10-01T05:00:17.974Z,3.10
2022-10-01T05:02:45.778Z,3.33
2022-10-01T05:05:12.858Z,2.97
2022-10-01T05:07:39.989Z,2.92
2022-10-01T05:10:09.213Z,2.97
2022-10-01T05:12:35.857Z,2.80
2022-10-01T05:15:03.274Z,2.38
2022-10-01T05:17:34.072Z,3.00
2022-10-01T05:20:01.696Z,2.08
2022-10-01T05:22:28.831Z,2.03
2022-10-01T05:24:55.503Z,2.13
2022-10-01T05:27:22.111Z,1.50
2022-10-01T05:29:49.130Z,1.70
2022-10-01T05:32:16.537Z,1.65
2022-10-01T05:34:43.113Z,2.08
2022-10-01T05:37:10.979Z,2.15
2022-10-01T05:39:37.975Z,1.70
2022-10-01T05:42:06.537Z,1.85
2022-10-01T05:44:37.931Z,2.20
2022-10-01T05:47:07.458Z,1.50
2022-10-01T05:49:34.156Z,1.83
2022-10-01T05:52:01.180Z,1.80
2022-10-01T05:54:29.658Z,1.65
2022-10-01T05:56:59.289Z,1.40
2022-10-01T05:59:31.025Z,1.67
2022-10-01T06:01:58.502Z,1.40
2022-10-01T06:04:25.269Z,1.52
2022-10-01T06:06:53.250Z,1.52
2022-10-01T06:09:20.042Z,1.58
2022-10-01T06:11:48.985Z,1.48
2022-10-01T06:14:16.251Z,1.45
2022-10-01T06:16:43.059Z,1.48
2022-10-01T06:19:09.874Z,2.03
2022-10-01T06:21:36.947Z,1.75
2022-10-01T06:24:03.971Z,1.67
2022-10-01T06:26:31.287Z,1.63
2022-10-01T06:28:57.928Z,1.30
2022-10-01T06:31:25.218Z,2.28
2022-10-01T06:33:51.940Z,1.75
2022-10-01T06:36:18.570Z,1.67
2022-10-01T06:38:48.435Z,1.70
2022-10-01T06:41:15.053Z,1.83
2022-10-01T06:43:41.701Z,1.90
2022-10-01T06:46:08.397Z,1.98
2022-10-01T06:48:36.724Z,1.80
2022-10-01T06:51:04.092Z,2.17
2022-10-01T06:53:31.954Z,2.92
2022-10-01T06:56:04.483Z,2.50
2022-10-01T06:58:31.138Z,2.25
2022-10-01T07:01:02.045Z,2.38
2022-10-01T07:03:29.161Z,2.85
2022-10-01T07:06:01.256Z,2.95
2022-10-01T07:08:27.841Z,2.47
2022-10-01T07:10:59.582Z,2.40
2022-10-01T07:13:26.177Z,2.27
2022-10-01T07:15:52.778Z,2.65
2022-10-01T07:18:19.378Z,2.65
2022-10-01T07:20:46.103Z,2.50
2022-10-01T07:23:14.362Z,2.65
2022-10-01T07:25:41.916Z,2.47
2022-10-01T07:28:16.610Z,2.83
2022-10-01T07:30:47.498Z,2.70
2022-10-01T07:33:20.932Z,2.25
2022-10-01T07:35:48.040Z,3.08
2022-10-01T07:38:14.806Z,2.75
2022-10-01T07:40:42.050Z,2.67
2022-10-01T07:43:08.968Z,2.78
2022-10-01T07:45:35.586Z,2.50
2022-10-01T07:48:03.370Z,2.67
2022-10-01T07:50:30.647Z,2.50
2022-10-01T07:52:58.722Z,2.80
2022-10-01T07:55:27.516Z,2.67
2022-10-01T07:57:55.903Z,2.83
2022-10-01T08:00:25.766Z,3.10
2022-10-01T08:02:54.380Z,2.83
2022-10-01T08:05:23.454Z,2.92
2022-10-01T08:07:50.656Z,3.15
2022-10-01T08:10:19.237Z,3.05
2022-10-01T08:12:46.292Z,3.30
2022-10-01T08:15:15.564Z,3.25
2022-10-01T08:17:42.667Z,3.25
2022-10-01T08:20:11.262Z,3.53
2022-10-01T08:22:41.865Z,3.35
2022-10-01T08:25:09.878Z,3.28
2022-10-01T08:27:36.917Z,3.45
2022-10-01T08:30:04.217Z,3.15
2022-10-01T08:32:31.283Z,3.03
2022-10-01T08:35:00.013Z,2.80
2022-10-01T08:37:27.920Z,2.67
2022-10-01T08:39:55.334Z,3.47
2022-10-01T08:42:39.448Z,3.70
2022-10-01T08:45:11.780Z,3.55
2022-10-01T08:47:45.397Z,2.83
2022-10-01T08:50:31.677Z,3.15
2022-10-01T08:53:02.549Z,3.22
2022-10-01T08:55:36.319Z,3.20
2022-10-01T08:58:08.987Z,2.60
2022-10-01T09:03:06.557Z,2.88
2022-10-01T09:05:52.334Z,3.08
2022-10-01T09:08:57.785Z,2.65
2022-10-01T09:11:35.393Z,2.85
2022-10-01T09:14:25.032Z,3.70
2022-10-01T09:16:51.694Z,3.08
2022-10-01T09:19:34.723Z,2.90
2022-10-01T09:22:10.211Z,3.00
2022-10-01T09:24:43.640Z,3.30
2022-10-01T09:27:18.324Z,2.90
2022-10-01T09:30:04.126Z,3.38
2022-10-01T09:32:34.386Z,2.95
2022-10-01T09:35:05.944Z,2.85
2022-10-01T09:37:43.474Z,3.10
2022-10-01T09:40:36.154Z,3.28
2022-10-01T09:43:04.257Z,3.38
2022-10-01T09:45:31.360Z,3.20
2022-10-01T09:48:05.276Z,3.40
2022-10-01T09:50:39.939Z,3.55
2022-10-01T09:53:12.947Z,3.20
2022-10-01T09:55:41.774Z,2.78
2022-10-01T09:58:19.203Z,3.10
2022-10-01T10:00:46.071Z,3.05
2022-10-01T10:03:27.613Z,3.30
2022-10-01T10:05:55.117Z,2.50
2022-10-01T10:08:28.018Z,3.20
2022-10-01T10:10:58.923Z,3.20
2022-10-01T10:13:32.078Z,3.30
2022-10-01T10:16:00.081Z,3.13
2022-10-01T10:18:34.623Z,3.63
2022-10-01T10:21:15.140Z,3.42
2022-10-01T10:23:57.097Z,3.75
2022-10-01T10:26:32.439Z,3.37
2022-10-01T10:29:02.256Z,2.50
2022-10-01T10:31:38.025Z,2.63
2022-10-01T10:34:31.960Z,2.83
2022-10-01T10:37:00.632Z,3.13
2022-10-01T10:39:32.907Z,2.40
2022-10-01T10:42:00.274Z,2.20
2022-10-01T10:44:39.749Z,2.50
2022-10-01T10:47:10.599Z,2.55
2022-10-01T10:50:04.554Z,2.70
2022-10-01T10:52:36.479Z,2.10
2022-10-01T10:55:31.160Z,2.10
2022-10-01T10:58:34.719Z,1.98
2022-10-01T11:01:06.226Z,1.38
2022-10-01T11:03:33.494Z,1.20
2022-10-01T11:06:09.902Z,1.38
2022-10-01T11:08:36.678Z,1.33
2022-10-01T11:11:21.679Z,1.00
2022-10-01T11:13:59.241Z,1.27
2022-10-01T11:16:47.575Z,1.20
2022-10-01T11:19:37.767Z,0.93
2022-10-01T11:22:26.198Z,1.20
2022-10-01T11:25:01.204Z,1.17
2022-10-01T11:28:13.018Z,1.00
2022-10-01T11:31:19.456Z,1.08
2022-10-01T11:34:00.527Z,0.90
2022-10-01T11:36:28.666Z,1.00
2022-10-01T11:38:59.174Z,0.80
2022-10-01T11:41:47.311Z,0.90
2022-10-01T11:44:29.633Z,1.00
2022-10-01T11:47:01.932Z,0.85
2022-10-01T11:49:45.489Z,0.90
2022-10-01T11:52:59.623Z,1.00
2022-10-01T11:56:00.391Z,1.10
2022-10-01T11:59:02.531Z,1.10
2022-10-01T12:01:38.269Z,0.85
2022-10-01T12:04:50.767Z,0.52
2022-10-01T12:07:30.288Z,0.80
2022-10-01T12:10:18.277Z,0.73
2022-10-01T12:12:54.407Z,0.55
2022-10-01T12:15:30.059Z,0.90
2022-10-01T12:18:55.263Z,0.98
2022-10-01T12:21:38.540Z,0.98
2022-10-01T12:24:12.164Z,1.05
2022-10-01T12:27:23.911Z,0.95
2022-10-01T12:30:29.485Z,0.75
2022-10-01T12:33:28.083Z,0.80
2022-10-01T12:36:23.315Z,0.90
2022-10-01T12:39:00.259Z,0.88
2022-10-01T12:41:52.516Z,0.70
2022-10-01T12:44:21.469Z,0.60
2022-10-01T12:47:06.647Z,0.55
2022-10-01T12:49:37.711Z,0.65
2022-10-01T12:52:11.685Z,0.70
2022-10-01T12:54:41.815Z,0.80
2022-10-01T12:57:17.534Z,0.52
2022-10-01T12:59:59.320Z,0.80
2022-10-01T13:02:45.255Z,0.57
2022-10-01T13:05:17.566Z,0.70
2022-10-01T13:07:59.187Z,0.70
2022-10-01T13:11:21.052Z,0.65
2022-10-01T13:13:51.654Z,0.60
2022-10-01T13:16:30.507Z,0.40
2022-10-01T13:19:18.048Z,0.40
2022-10-01T13:22:07.911Z,0.50
2022-10-01T13:25:00.722Z,0.60
2022-10-01T13:27:43.903Z,0.60
2022-10-01T13:30:23.098Z,0.60
2022-10-01T13:32:58.569Z,0.93
2022-10-01T13:35:42.331Z,0.60
2022-10-01T13:38:31.303Z,0.80
2022-10-01T13:41:00.117Z,0.70
2022-10-01T13:43:32.393Z,0.60
2022-10-01T13:46:09.058Z,0.65
2022-10-01T13:48:46.043Z,1.40
2022-10-01T13:51:13.571Z,0.63
2022-10-01T13:53:43.352Z,0.73
2022-10-01T13:56:14.450Z,0.82
2022-10-01T13:58:42.882Z,0.80
2022-10-01T14:01:24.727Z,0.60
2022-10-01T14:04:19.054Z,1.13
2022-10-01T14:06:54.072Z,0.57
2022-10-01T14:09:27.976Z,0.68
2022-10-01T14:12:26.025Z,0.80
2022-10-01T14:15:16.440Z,0.85
2022-10-01T14:17:50.390Z,0.75
2022-10-01T14:20:19.542Z,0.70
2022-10-01T14:23:11.566Z,0.68
2022-10-01T14:25:59.602Z,0.67
2022-10-01T14:28:35.431Z,0.50
2022-10-01T14:31:45.583Z,0.52
2022-10-01T14:36:50.099Z,0.70
2022-10-01T14:39:18.352Z,0.60
2022-10-01T14:41:47.177Z,0.50
2022-10-01T14:44:43.305Z,0.52
2022-10-01T14:47:27.949Z,0.63
2022-10-01T14:49:55.060Z,0.50
2022-10-01T14:52:27.857Z,0.50
2022-10-01T14:55:04.624Z,0.52
2022-10-01T14:57:36.598Z,0.65
2022-10-01T15:00:12.777Z,0.55
2022-10-01T15:02:50.819Z,0.40
2022-10-01T15:05:22.607Z,0.70
2022-10-01T15:07:49.327Z,0.80
2022-10-01T15:10:20.574Z,0.40
2022-10-01T15:12:50.449Z,0.43
2022-10-01T15:15:40.644Z,0.50
2022-10-01T15:18:07.789Z,0.52
2022-10-01T15:20:34.984Z,0.50
2022-10-01T15:23:05.209Z,0.40
2022-10-01T15:25:32.403Z,0.60
2022-10-01T15:27:59.256Z,0.77
2022-10-01T15:30:27.908Z,0.80
2022-10-01T15:32:54.720Z,0.63
2022-10-01T15:35:22.814Z,0.60
2022-10-01T15:37:50.602Z,0.57
2022-10-01T15:40:29.275Z,0.68
2022-10-01T15:43:12.386Z,0.73
2022-10-01T15:45:39.059Z,0.45
2022-10-01T15:48:30.030Z,0.50
2022-10-01T15:51:04.087Z,0.50
2022-10-01T15:53:42.902Z,0.50
2022-10-01T15:56:20.589Z,0.50
2022-10-01T15:59:01.001Z,0.65
2022-10-01T16:01:32.443Z,0.60
2022-10-01T16:04:07.749Z,0.50
2022-10-01T16:06:52.457Z,0.50
2022-10-01T16:09:31.234Z,0.45
2022-10-01T16:12:26.134Z,0.40
2022-10-01T16:15:35.520Z,0.50
2022-10-01T16:18:29.476Z,0.60
2022-10-01T16:21:07.962Z,0.52
2022-10-01T16:23:53.547Z,0.70
2022-10-01T16:26:31.577Z,0.63
2022-10-01T16:29:07.148Z,0.70
2022-10-01T16:32:04.811Z,0.68
2022-10-01T16:34:48.437Z,0.57
2022-10-01T16:37:38.231Z,0.50
2022-10-01T16:40:36.639Z,0.68
2022-10-01T16:43:22.673Z,0.60
2022-10-01T16:46:01.838Z,1.20
2022-10-01T16:48:31.345Z,0.40
2022-10-01T16:51:07.200Z,0.50
2022-10-01T16:53:46.198Z,0.73
2022-10-01T16:56:26.931Z,0.70
2022-10-01T16:59:06.156Z,0.57
2022-10-01T17:01:42.505Z,0.60
2022-10-01T17:04:14.071Z,0.98
2022-10-01T17:06:53.971Z,0.73
2022-10-01T17:09:44.547Z,0.70
2022-10-01T17:12:27.179Z,0.70
2022-10-01T17:15:14.664Z,0.73
2022-10-01T17:18:09.259Z,0.60
2022-10-01T17:20:42.476Z,0.90
2022-10-01T17:23:25.248Z,0.98
2022-10-01T17:26:06.930Z,0.63
2022-10-01T17:28:53.928Z,0.70
2022-10-01T17:31:33.307Z,0.70
2022-10-01T17:34:09.802Z,0.90
2022-10-01T17:36:41.649Z,0.70
2022-10-01T17:39:16.697Z,1.10
2022-10-01T17:41:49.876Z,1.00
2022-10-01T17:44:24.617Z,0.70
2022-10-01T17:47:06.808Z,1.02
2022-10-01T17:49:38.209Z,1.20
2022-10-01T17:52:18.612Z,1.13
2022-10-01T17:54:49.297Z,1.02
2022-10-01T17:57:22.604Z,0.93
2022-10-01T17:59:52.107Z,1.13
2022-10-01T18:02:44.181Z,1.25
2022-10-01T18:05:19.344Z,0.90
2022-10-01T18:07:50.269Z,0.90
2022-10-01T18:10:25.263Z,1.10
2022-10-01T18:12:57.797Z,1.10
2022-10-01T18:15:30.565Z,1.05
2022-10-01T18:19:30.970Z,1.20
2022-10-01T18:21:08.440Z,0.90
2022-10-01T18:23:39.377Z,1.20
2022-10-01T18:26:20.031Z,1.45
2022-10-01T18:29:00.403Z,1.45
2022-10-01T18:31:39.768Z,1.63
2022-10-01T18:34:34.538Z,1.55
2022-10-01T18:37:46.899Z,1.27
2022-10-01T18:40:27.019Z,1.42
2022-10-01T18:43:13.010Z,1.00
2022-10-01T18:46:03.646Z,1.27
2022-10-01T18:49:27.485Z,1.50
2022-10-01T18:52:41.845Z,1.00
2022-10-01T18:55:44.789Z,1.00
2022-10-01T18:58:51.142Z,1.25
2022-10-01T19:01:48.951Z,1.67
2022-10-01T19:04:59.135Z,1.30
2022-10-01T19:07:58.644Z,0.98
2022-10-01T19:11:07.370Z,1.23
2022-10-01T19:14:31.816Z,1.40
2022-10-01T19:17:17.759Z,1.27
2022-10-01T19:20:19.368Z,1.63
2022-10-01T19:23:07.868Z,1.35
2022-10-01T19:25:55.347Z,1.10
2022-10-01T19:28:45.874Z,1.40
2022-10-01T19:31:34.984Z,1.05
2022-10-01T19:34:11.200Z,1.30
2022-10-01T19:36:48.565Z,1.25
2022-10-01T19:39:31.356Z,1.17
2022-10-01T19:42:36.784Z,1.50
2022-10-01T19:45:31.345Z,1.48
2022-10-01T19:48:16.571Z,1.58
2022-10-01T19:50:48.765Z,1.45
2022-10-01T19:53:31.999Z,1.08
2022-10-01T19:56:05.413Z,1.48
2022-10-01T19:58:52.531Z,1.55
2022-10-01T20:01:34.775Z,1.50
2022-10-01T20:04:20.907Z,2.40
2022-10-01T20:07:01.578Z,1.30
2022-10-01T20:10:16.109Z,1.40
2022-10-01T20:13:05.105Z,1.40
2022-10-01T20:16:04.861Z,1.80
2022-10-01T20:18:39.862Z,1.17
2022-10-01T20:21:26.950Z,1.30
2022-10-01T20:24:06.510Z,1.48
2022-10-01T20:26:42.794Z,1.38
2022-10-01T20:29:30.731Z,1.33
2022-10-01T20:32:45.906Z,1.45
2022-10-01T20:35:45.896Z,2.00
2022-10-01T20:38:35.589Z,1.40
2022-10-01T20:41:16.478Z,1.15
2022-10-01T20:43:54.635Z,1.38
2022-10-01T20:46:39.009Z,1.38
2022-10-01T20:49:21.143Z,1.50
2022-10-01T20:52:13.183Z,1.58
2022-10-01T20:54:45.125Z,2.08
2022-10-01T20:57:42.586Z,2.38
2022-10-01T21:00:34.314Z,1.95
2022-10-01T21:03:42.648Z,1.98
2022-10-01T21:06:30.681Z,1.55
2022-10-01T21:09:15.348Z,2.38
2022-10-01T21:12:02.266Z,2.63
2022-10-01T21:14:39.092Z,2.20
2022-10-01T21:17:32.816Z,2.67
2022-10-01T21:20:37.759Z,2.70
2022-10-01T21:23:17.654Z,2.63
2022-10-01T21:26:19.821Z,2.58
2022-10-01T21:29:14.918Z,2.20
2022-10-01T21:31:47.187Z,2.53
2022-10-01T21:34:36.911Z,2.15
2022-10-01T21:37:29.151Z,2.13
2022-10-01T21:40:28.224Z,1.92
2022-10-01T21:43:10.249Z,1.90
2022-10-01T21:46:34.625Z,1.90
2022-10-01T21:49:24.536Z,1.55
2022-10-01T21:52:33.049Z,1.67
2022-10-01T21:55:20.397Z,1.77
2022-10-01T21:58:27.194Z,1.83
2022-10-01T22:01:27.733Z,1.83
2022-10-01T22:04:14.546Z,2.17
2022-10-01T22:07:11.964Z,2.15
2022-10-01T22:09:51.948Z,2.42
2022-10-01T22:12:28.150Z,2.55
2022-10-01T22:15:01.668Z,2.33
2022-10-01T22:17:42.540Z,2.72
2022-10-01T22:20:25.155Z,2.03
2022-10-01T22:22:57.225Z,1.77
2022-10-01T22:25:35.534Z,2.40
2022-10-01T22:28:13.731Z,1.63
2022-10-01T22:30:44.990Z,1.83
2022-10-01T22:33:34.365Z,2.00
2022-10-01T22:36:09.078Z,2.13
2022-10-01T22:38:58.036Z,2.03
2022-10-01T22:41:28.824Z,2.22
2022-10-01T22:44:00.239Z,1.60
2022-10-01T22:47:01.283Z,2.00
2022-10-01T22:50:13.170Z,1.50
2022-10-01T22:53:00.399Z,1.73
2022-10-01T22:56:15.313Z,1.50
2022-10-01T22:59:17.331Z,1.83
2022-10-01T23:02:43.156Z,2.03
2022-10-01T23:05:40.038Z,2.10
2022-10-01T23:08:30.111Z,1.75
2022-10-01T23:11:32.017Z,1.83
2022-10-01T23:14:20.586Z,2.17
2022-10-01T23:17:14.890Z,3.03
2022-10-01T23:20:06.510Z,2.95
2022-10-01T23:22:45.615Z,2.35
2022-10-01T23:25:40.588Z,3.08
2022-10-01T23:28:32.723Z,2.63
2022-10-01T23:31:37.985Z,2.50
2022-10-01T23:34:29.137Z,2.22
2022-10-01T23:37:17.071Z,2.75
2022-10-01T23:39:48.014Z,2.42
2022-10-01T23:42:33.381Z,2.42
2022-10-01T23:45:15.411Z,2.10
2022-10-01T23:47:48.363Z,2.58
2022-10-01T23:50:22.768Z,2.38
2022-10-01T23:53:00.532Z,2.55
2022-10-01T23:56:15.986Z,2.58
2022-10-01T23:59:13.905Z,2.58
